Time;durP1;ratioP1;P1;durP2;ratioP2;P2;SDS_P1;SDS_P2;PMS_P1;PMS_P2;Temp;Humidity;BMP_temperature;BMP_pressure;BME280_temperature;BME280_humidity;BME280_pressure;Samples;Min_cycle;Max_cycle;Signal;HPM_P1;HPM_P2
2022/06/28 00:01:06;;;;;;;15.48;9.33;;;;;;;19.22;100.00;100992.69;1711329;83;21883;-89
2022/06/28 00:03:34;;;;;;;11.95;8.50;;;;;;;19.18;100.00;100994.02;1711248;83;21152;-89
2022/06/28 00:06:01;;;;;;;10.15;8.43;;;;;;;19.14;100.00;100990.04;1690556;83;21701;-88
2022/06/28 00:08:28;;;;;;;15.03;9.48;;;;;;;19.13;100.00;100992.85;1672651;83;21061;-89
2022/06/28 00:10:55;;;;;;;11.95;9.60;;;;;;;19.09;100.00;100987.08;1665336;85;21030;-89
2022/06/28 00:13:23;;;;;;;10.80;8.80;;;;;;;19.02;100.00;100991.35;1711761;83;21027;-90
2022/06/28 00:16:05;;;;;;;10.88;9.43;;;;;;;18.92;100.00;100994.11;1711301;83;21898;-89
2022/06/28 00:18:38;;;;;;;13.25;9.35;;;;;;;18.82;100.00;100991.59;1711156;83;20955;-89
2022/06/28 00:21:07;;;;;;;15.23;9.33;;;;;;;18.72;100.00;100997.01;1711257;82;21070;-88
2022/06/28 00:23:36;;;;;;;13.03;9.10;;;;;;;18.63;100.00;100993.19;1711224;82;21042;-89
2022/06/28 00:26:06;;;;;;;15.75;8.55;;;;;;;18.56;100.00;100988.53;1711456;82;21003;-89
2022/06/28 00:28:34;;;;;;;11.60;8.50;;;;;;;18.57;100.00;100984.09;1711888;83;21140;-89
2022/06/28 00:31:03;;;;;;;11.80;8.65;;;;;;;18.60;100.00;100980.64;1711477;83;21345;-89
2022/06/28 00:33:30;;;;;;;9.98;8.73;;;;;;;18.62;100.00;100985.75;1711555;82;21085;-89
2022/06/28 00:35:57;;;;;;;11.73;8.55;;;;;;;18.65;100.00;100985.92;1711372;83;21093;-88
2022/06/28 00:38:25;;;;;;;10.10;8.45;;;;;;;18.69;100.00;100988.59;1711484;82;21043;-89
2022/06/28 00:40:54;;;;;;;15.15;10.08;;;;;;;18.70;100.00;100989.73;1711755;83;21212;-89
2022/06/28 00:43:22;;;;;;;12.05;9.55;;;;;;;18.74;100.00;100988.92;1711218;83;21054;-90
2022/06/28 00:45:51;;;;;;;11.12;9.10;;;;;;;18.74;100.00;100993.73;1711693;83;21097;-89
2022/06/28 00:48:19;;;;;;;15.80;9.30;;;;;;;18.70;100.00;100996.84;1711560;82;21094;-89
2022/06/28 00:50:47;;;;;;;12.53;7.85;;;;;;;18.66;100.00;101004.72;1711674;83;21053;-91
2022/06/28 00:53:17;;;;;;;14.75;8.83;;;;;;;18.63;100.00;101001.10;1711422;83;21775;-89
2022/06/28 00:55:46;;;;;;;12.30;8.53;;;;;;;18.59;100.00;101002.73;1721998;80;21537;-89
2022/06/28 00:58:16;;;;;;;14.10;8.68;;;;;;;18.55;100.00;101004.52;1729012;81;21003;-89
2022/06/28 01:00:49;;;;;;;14.73;9.35;;;;;;;18.50;100.00;101003.67;1726039;83;21011;-88
2022/06/28 01:03:19;;;;;;;13.85;8.98;;;;;;;18.47;100.00;101009.75;1729148;83;21074;-88
2022/06/28 01:05:50;;;;;;;12.68;9.03;;;;;;;18.43;100.00;101010.05;1729020;83;21465;-89
2022/06/28 01:08:19;;;;;;;11.93;9.15;;;;;;;18.41;100.00;101009.88;1707903;83;21121;-89
2022/06/28 01:10:46;;;;;;;14.45;9.53;;;;;;;18.39;100.00;101007.89;1706031;83;21092;-90
2022/06/28 01:13:15;;;;;;;12.63;9.55;;;;;;;18.38;100.00;101007.08;1711125;82;21011;-90
2022/06/28 01:15:42;;;;;;;12.33;8.73;;;;;;;18.36;100.00;101002.45;1729261;83;20963;-89
2022/06/28 01:18:12;;;;;;;10.88;9.00;;;;;;;18.34;100.00;101004.91;1725484;81;21076;-89
2022/06/28 01:20:43;;;;;;;11.10;8.53;;;;;;;18.33;100.00;101000.61;1708314;83;20996;-89
2022/06/28 01:23:20;;;;;;;10.82;8.90;;;;;;;18.33;100.00;101000.61;1719191;83;33636;-88
2022/06/28 01:25:46;;;;;;;12.23;8.63;;;;;;;18.35;100.00;100998.66;1728561;81;21130;-91
2022/06/28 01:28:16;;;;;;;10.82;8.05;;;;;;;18.39;100.00;101002.62;1708436;83;21058;-89
2022/06/28 01:30:43;;;;;;;10.18;8.20;;;;;;;18.40;100.00;101001.16;1728938;83;21164;-89
2022/06/28 01:33:21;;;;;;;16.57;8.63;;;;;;;18.43;100.00;101006.61;1725633;83;20940;-89
2022/06/28 01:35:49;;;;;;;9.93;7.85;;;;;;;18.45;100.00;101002.83;1729115;81;21050;-89
2022/06/28 01:38:17;;;;;;;12.35;8.85;;;;;;;18.48;100.00;100999.04;1728940;83;21027;-89
2022/06/28 01:40:46;;;;;;;12.35;8.53;;;;;;;18.51;100.00;101001.38;1729117;81;21046;-89
2022/06/28 01:43:14;;;;;;;11.40;8.68;;;;;;;18.52;100.00;101006.98;1728677;81;21533;-89
2022/06/28 01:45:42;;;;;;;11.40;8.05;;;;;;;18.52;100.00;101003.03;1708226;83;21101;-89
2022/06/28 01:48:10;;;;;;;15.03;8.75;;;;;;;18.51;100.00;101000.05;1708125;83;21604;-91
2022/06/28 01:50:57;;;;;;;10.85;8.68;;;;;;;18.51;100.00;100998.73;1728747;82;21034;-89
2022/06/28 01:53:25;;;;;;;15.13;9.60;;;;;;;18.49;100.00;100993.30;1729002;83;21026;-91
2022/06/28 01:56:04;;;;;;;11.78;8.78;;;;;;;18.46;100.00;100993.13;1736955;81;21418;-89
2022/06/28 01:58:36;;;;;;;11.30;8.98;;;;;;;18.42;100.00;101000.52;1676314;82;21079;-89
2022/06/28 02:01:03;;;;;;;13.70;8.95;;;;;;;18.42;100.00;100997.05;1743229;82;21540;-89
2022/06/28 02:03:30;;;;;;;14.47;9.15;;;;;;;18.41;100.00;101001.98;1743689;82;21062;-89
2022/06/28 02:05:59;;;;;;;13.53;8.98;;;;;;;18.36;100.00;100994.53;1737251;82;21041;-90
2022/06/28 02:08:28;;;;;;;13.32;9.88;;;;;;;18.32;100.00;100997.17;1743479;82;21822;-91
2022/06/28 02:10:58;;;;;;;11.60;8.65;;;;;;;18.26;100.00;101004.39;1736059;82;21524;-89
2022/06/28 02:13:28;;;;;;;11.27;8.53;;;;;;;18.20;100.00;101003.20;1743588;81;21065;-90
2022/06/28 02:15:55;;;;;;;12.13;8.65;;;;;;;18.16;100.00;101001.84;1743411;82;21046;-88
2022/06/28 02:18:23;;;;;;;14.15;8.90;;;;;;;18.15;100.00;100998.87;1743378;81;20998;-89
2022/06/28 02:20:51;;;;;;;13.78;9.65;;;;;;;18.14;100.00;100999.87;1743402;82;21145;-88
2022/06/28 02:23:19;;;;;;;16.15;10.63;;;;;;;18.12;100.00;101001.83;1743348;82;20991;-88
2022/06/28 02:25:46;;;;;;;15.25;10.35;;;;;;;18.08;100.00;100993.89;1743087;82;21054;-89
2022/06/28 02:28:13;;;;;;;17.00;11.75;;;;;;;17.99;100.00;100994.34;1743846;82;21089;-89
2022/06/28 02:30:41;;;;;;;17.27;10.72;;;;;;;17.91;100.00;101000.84;1743484;82;20958;-89
2022/06/28 02:33:08;;;;;;;18.98;11.35;;;;;;;17.80;100.00;100997.47;1743520;81;21137;-88
2022/06/28 02:41:07;;;;;;;18.85;10.85;;;;;;;17.56;100.00;101004.70;1743245;82;21591;-89
2022/06/28 02:43:34;;;;;;;16.35;10.25;;;;;;;17.52;100.00;101005.97;1743360;82;21054;-88
2022/06/28 02:46:03;;;;;;;17.10;10.48;;;;;;;17.53;100.00;101000.23;1743123;81;21455;-89
2022/06/28 02:48:30;;;;;;;13.43;10.05;;;;;;;17.57;100.00;101006.36;1743438;82;21437;-89
2022/06/28 02:50:58;;;;;;;17.52;10.48;;;;;;;17.64;100.00;101005.23;1739406;81;21007;-89
2022/06/28 02:53:25;;;;;;;18.80;12.03;;;;;;;17.70;100.00;101000.70;1743724;81;20962;-88
2022/06/28 02:55:52;;;;;;;16.77;10.40;;;;;;;17.80;100.00;101004.55;1736902;82;21006;-89
2022/06/28 02:58:20;;;;;;;15.05;10.82;;;;;;;17.86;100.00;100997.85;1726475;83;21813;-89
2022/06/28 03:00:47;;;;;;;15.75;10.95;;;;;;;17.91;100.00;100998.20;1726262;83;20948;-88
2022/06/28 03:03:14;;;;;;;16.80;11.12;;;;;;;17.94;100.00;101002.67;1726771;83;21086;-88
2022/06/28 03:05:42;;;;;;;13.93;10.38;;;;;;;18.00;100.00;101001.73;1726505;81;21031;-88
2022/06/28 03:08:10;;;;;;;16.60;11.00;;;;;;;18.06;100.00;101007.73;1726517;83;21054;-89
2022/06/28 03:10:40;;;;;;;14.47;10.40;;;;;;;18.10;100.00;101002.47;1726542;83;21537;-89
2022/06/28 03:13:07;;;;;;;14.68;10.15;;;;;;;18.13;100.00;101009.58;1726675;83;21349;-88
2022/06/28 03:15:35;;;;;;;11.93;9.95;;;;;;;18.18;100.00;101006.47;1726461;81;21059;-88
2022/06/28 03:18:03;;;;;;;14.18;9.65;;;;;;;18.25;100.00;101012.77;1726329;82;20956;-89
2022/06/28 03:20:31;;;;;;;13.15;9.80;;;;;;;18.33;100.00;101009.84;1726640;81;21003;-89
2022/06/28 03:22:58;;;;;;;9.63;8.63;;;;;;;18.40;100.00;101012.18;1726485;81;21828;-88
2022/06/28 03:25:26;;;;;;;14.43;9.90;;;;;;;18.47;100.00;101013.70;1726856;83;21059;-89
2022/06/28 03:27:53;;;;;;;14.78;9.63;;;;;;;18.56;100.00;101012.77;1726629;81;21176;-89
2022/06/28 03:30:21;;;;;;;14.03;9.95;;;;;;;18.62;100.00;101012.12;1727173;83;21363;-89
2022/06/28 03:32:50;;;;;;;11.70;8.85;;;;;;;18.69;100.00;101010.50;1726417;81;21078;-90
2022/06/28 03:35:19;;;;;;;17.20;9.88;;;;;;;18.77;100.00;101007.08;1725721;82;21151;-90
2022/06/28 03:37:46;;;;;;;13.72;9.30;;;;;;;18.84;100.00;101008.09;1726540;83;21035;-88
2022/06/28 03:40:13;;;;;;;13.35;9.35;;;;;;;18.93;100.00;101008.14;1726994;83;21038;-89
2022/06/28 03:42:42;;;;;;;15.78;9.83;;;;;;;18.99;100.00;101006.98;1722178;83;21478;-89
2022/06/28 03:45:09;;;;;;;12.37;8.90;;;;;;;19.06;100.00;101005.38;1726960;81;21035;-89
2022/06/28 03:47:38;;;;;;;13.25;8.78;;;;;;;19.16;100.00;101010.51;1726262;83;20980;-90
2022/06/28 03:50:09;;;;;;;13.30;9.23;;;;;;;19.28;100.00;101008.86;1726806;81;20999;-88
2022/06/28 03:52:38;;;;;;;16.02;9.25;;;;;;;19.40;100.00;101004.92;1723096;82;21058;-88
2022/06/28 03:55:11;;;;;;;11.20;9.15;;;;;;;19.49;100.00;101003.95;1726520;83;21489;-90
2022/06/28 03:57:40;;;;;;;15.03;9.38;;;;;;;19.60;100.00;101000.14;1728467;82;21035;-92
2022/06/28 04:00:09;;;;;;;11.78;9.18;;;;;;;19.73;100.00;100993.52;1729024;83;21130;-92
2022/06/28 04:02:44;;;;;;;13.08;8.48;;;;;;;19.85;100.00;100995.69;1728919;81;20991;-89
2022/06/28 04:05:13;;;;;;;13.28;8.80;;;;;;;20.00;100.00;100988.39;1725546;83;21070;-89
2022/06/28 04:07:41;;;;;;;14.75;9.15;;;;;;;20.14;100.00;100997.45;1729058;81;21046;-89
2022/06/28 04:10:10;;;;;;;13.18;9.25;;;;;;;20.26;100.00;101000.08;1729020;83;21121;-89
2022/06/28 04:12:38;;;;;;;11.28;9.10;;;;;;;20.38;100.00;101005.83;1729130;83;21257;-89
2022/06/28 04:15:08;;;;;;;17.40;10.15;;;;;;;20.50;100.00;100997.02;1725319;83;21108;-89
2022/06/28 04:17:36;;;;;;;12.85;8.43;;;;;;;20.61;100.00;100997.13;1727735;82;21449;-90
2022/06/28 04:20:06;;;;;;;9.93;8.53;;;;;;;20.73;100.00;101005.54;1723994;82;21062;-90
2022/06/28 04:22:35;;;;;;;14.53;8.85;;;;;;;20.85;100.00;100998.03;1724530;82;21103;-90
2022/06/28 04:25:02;;;;;;;12.05;8.65;;;;;;;20.96;100.00;100989.68;1700258;82;21083;-90
2022/06/28 04:27:31;;;;;;;12.30;9.80;;;;;;;21.09;100.00;100990.43;1697055;84;21381;-90
2022/06/28 04:29:59;;;;;;;10.95;8.25;;;;;;;21.24;100.00;100991.83;1700042;82;21024;-89
2022/06/28 04:32:37;;;;;;;13.95;9.15;;;;;;;21.37;100.00;100993.89;1696928;83;21058;-89
2022/06/28 04:35:07;;;;;;;12.80;8.50;;;;;;;21.51;100.00;100995.75;1699808;83;21057;-89
2022/06/28 04:37:34;;;;;;;11.30;8.00;;;;;;;21.62;100.00;100995.05;1679916;84;21136;-92
2022/06/28 04:40:04;;;;;;;11.48;8.43;;;;;;;21.69;100.00;100994.13;1696768;83;21089;-91
2022/06/28 04:42:36;;;;;;;12.78;7.75;;;;;;;21.79;100.00;100999.20;1696708;83;21102;-92
2022/06/28 04:45:05;;;;;;;10.70;7.70;;;;;;;21.90;100.00;100996.60;1699753;83;21109;-92
2022/06/28 04:47:35;;;;;;;10.77;7.70;;;;;;;22.01;100.00;100990.84;1697353;83;21125;-89
2022/06/28 04:50:03;;;;;;;9.80;7.15;;;;;;;22.13;100.00;100989.87;1699798;83;21113;-90
2022/06/28 04:52:31;;;;;;;10.10;7.58;;;;;;;22.24;100.00;100990.44;1700395;83;21054;-91
2022/06/28 04:54:59;;;;;;;12.47;7.53;;;;;;;22.33;100.00;100988.83;1708956;82;20966;-89
2022/06/28 04:57:31;;;;;;;13.13;7.45;;;;;;;22.42;100.00;100988.27;1745347;80;21191;-93
2022/06/28 05:00:05;;;;;;;10.72;7.42;;;;;;;22.53;100.00;100993.08;1745694;80;21061;-91
2022/06/28 05:02:39;;;;;;;13.60;7.08;;;;;;;22.66;100.00;100991.09;1745608;82;21213;-91
2022/06/28 05:05:09;;;;;;;10.28;7.03;;;;;;;22.76;100.00;100993.45;1745811;80;21084;-90
2022/06/28 05:07:40;;;;;;;9.05;6.83;;;;;;;22.87;100.00;100988.18;1750163;80;21096;-92
2022/06/28 05:10:09;;;;;;;8.53;6.22;;;;;;;22.99;100.00;100987.18;1745525;82;20982;-90
2022/06/28 05:12:38;;;;;;;8.60;5.90;;;;;;;23.13;100.00;100990.28;1746149;82;20994;-89
2022/06/28 05:15:06;;;;;;;9.45;5.45;;;;;;;23.26;100.00;100996.75;1750468;82;21140;-90
2022/06/28 05:17:40;;;;;;;11.70;6.28;;;;;;;23.37;100.00;100996.25;1745837;82;21050;-90
2022/06/28 05:20:08;;;;;;;6.85;5.60;;;;;;;23.47;100.00;100999.90;1750613;82;21041;-90
2022/06/28 05:22:36;;;;;;;10.53;5.78;;;;;;;23.55;100.00;101000.28;1749006;81;21026;-90
2022/06/28 05:25:09;;;;;;;8.33;5.10;;;;;;;23.61;100.00;101006.96;1705531;83;20997;-90
2022/06/28 05:27:37;;;;;;;9.35;5.53;;;;;;;23.71;100.00;101005.81;1737838;82;22089;-91
2022/06/28 05:30:05;;;;;;;16.07;5.60;;;;;;;23.80;100.00;101008.64;1738264;82;21642;-93
2022/06/28 05:32:32;;;;;;;8.98;5.42;;;;;;;23.89;100.00;101006.16;1750207;82;21092;-91
2022/06/28 05:35:00;;;;;;;7.33;4.85;;;;;;;23.98;100.00;101004.19;1750561;80;20994;-90
2022/06/28 05:37:28;;;;;;;8.53;5.20;;;;;;;24.08;100.00;101006.00;1750278;82;21062;-90
2022/06/28 05:39:57;;;;;;;8.20;5.70;;;;;;;24.19;100.00;100997.16;1750326;82;21127;-90
2022/06/28 05:42:24;;;;;;;7.05;4.90;;;;;;;24.32;100.00;100998.55;1750205;82;21086;-91
2022/06/28 05:44:52;;;;;;;6.58;5.28;;;;;;;24.45;100.00;100999.13;1750256;82;21105;-90
2022/06/28 05:47:19;;;;;;;7.20;5.60;;;;;;;24.56;100.00;100999.86;1750668;82;21002;-89
2022/06/28 05:49:51;;;;;;;5.83;5.33;;;;;;;24.68;100.00;101001.47;1750331;82;21041;-89
2022/06/28 05:52:26;;;;;;;6.92;4.87;;;;;;;24.78;100.00;100995.80;1750141;82;21109;-90
2022/06/28 05:59:16;;;;;;;9.00;5.45;;;;;;;24.99;92.51;100994.82;1754792;80;21065;-89
2022/06/28 06:01:43;;;;;;;5.72;4.70;;;;;;;25.16;90.74;100992.58;1754921;81;21045;-89
2022/06/28 06:04:19;;;;;;;11.05;5.42;;;;;;;25.24;92.19;100987.55;1754770;81;21002;-89
2022/06/28 06:06:51;;;;;;;8.90;4.97;;;;;;;25.34;94.39;100987.17;1754714;81;21796;-90
2022/06/28 06:09:19;;;;;;;7.72;4.92;;;;;;;25.45;85.70;100984.43;1754704;81;21026;-91
2022/06/28 06:11:47;;;;;;;6.15;4.75;;;;;;;25.55;83.94;100978.67;1754497;81;21077;-90
2022/06/28 06:14:16;;;;;;;6.67;4.78;;;;;;;25.61;86.35;100976.02;1754496;81;21065;-90
2022/06/28 06:16:44;;;;;;;7.92;4.42;;;;;;;25.67;82.36;100981.84;1686872;85;21045;-89
2022/06/28 06:19:15;;;;;;;6.95;3.98;;;;;;;25.77;76.94;100987.27;1715868;83;21093;-89
2022/06/28 06:21:42;;;;;;;4.10;3.70;;;;;;;25.82;77.40;100984.30;1726573;83;21031;-91
2022/06/28 06:24:09;;;;;;;9.00;4.33;;;;;;;25.96;78.27;100985.59;1716100;83;21565;-90
2022/06/28 06:26:58;;;;;;;4.53;3.90;;;;;;;26.06;76.65;100978.48;1715764;83;21065;-90
2022/06/28 06:29:26;;;;;;;5.30;3.70;;;;;;;26.20;74.53;100981.97;1716562;83;21087;-91
2022/06/28 06:31:54;;;;;;;6.25;3.40;;;;;;;26.26;72.64;100977.95;1715665;83;21700;-91
2022/06/28 06:34:54;;;;;;;7.90;4.00;;;;;;;26.33;71.17;100979.23;1711353;83;21027;-90
2022/06/28 06:37:21;;;;;;;4.00;3.60;;;;;;;26.41;69.09;100976.33;1715881;83;21083;-91
2022/06/28 06:40:17;;;;;;;4.78;3.58;;;;;;;26.53;73.37;100981.02;1715707;83;21029;-91
2022/06/28 06:43:21;;;;;;;6.20;4.03;;;;;;;26.61;69.57;100974.90;1715942;83;21287;-91
2022/06/28 06:45:50;;;;;;;3.55;3.25;;;;;;;26.70;67.55;100969.30;1712146;83;21143;-90
2022/06/28 06:48:17;;;;;;;32.25;4.45;;;;;;;26.79;68.01;100970.73;1715687;83;21545;-91
2022/06/28 06:50:45;;;;;;;6.20;3.45;;;;;;;26.87;65.13;100975.81;1715530;83;21087;-92
2022/06/28 06:53:12;;;;;;;6.12;3.83;;;;;;;26.96;64.78;100965.67;1715770;83;21528;-89
2022/06/28 06:55:43;;;;;;;3.90;3.22;;;;;;;27.01;64.39;100956.52;1716259;83;21014;-91
2022/06/28 06:58:10;;;;;;;2.90;2.60;;;;;;;27.07;63.07;100967.66;1711925;83;21138;-91
2022/06/28 07:04:29;;;;;;;5.65;2.70;;;;;;;27.20;56.83;100960.59;1714176;83;21067;-90
2022/06/28 07:06:57;;;;;;;4.47;3.22;;;;;;;27.27;55.94;100966.70;1710349;83;21841;-91
2022/06/28 07:09:30;;;;;;;4.15;2.90;;;;;;;27.34;57.25;100962.12;1712683;83;21093;-91
2022/06/28 07:12:25;;;;;;;3.67;2.85;;;;;;;27.42;59.54;100968.22;1708397;83;21160;-91
2022/06/28 07:14:53;;;;;;;5.33;2.95;;;;;;;27.50;58.49;100965.30;1725994;83;21061;-91
2022/06/28 07:17:27;;;;;;;2.92;2.62;;;;;;;27.63;53.33;100977.73;1720525;83;21018;-91
2022/06/28 07:20:01;;;;;;;6.83;2.83;;;;;;;27.70;59.91;100976.61;1715339;83;21125;-90
2022/06/28 07:22:29;;;;;;;4.10;2.37;;;;;;;27.75;54.41;100972.47;1714765;83;21165;-91
2022/06/28 07:29:31;;;;;;;4.72;2.35;;;;;;;27.87;52.27;100974.70;1714943;83;21070;-93
2022/06/28 07:32:40;;;;;;;5.28;2.20;;;;;;;27.95;52.02;100977.61;1726117;81;21042;-93
2022/06/28 07:43:16;;;;;;;3.25;2.20;;;;;;;28.13;50.51;100964.77;1699175;84;21698;-90
2022/06/28 07:45:45;;;;;;;2.70;2.50;;;;;;;28.28;54.22;100967.88;1684392;85;21050;-90
2022/06/28 07:48:21;;;;;;;5.15;2.20;;;;;;;28.39;51.82;100966.83;1743761;82;21109;-90
2022/06/28 07:53:44;;;;;;;2.35;2.15;;;;;;;28.54;49.26;100968.59;1743535;82;21790;-90
2022/06/28 07:56:13;;;;;;;2.30;2.10;;;;;;;28.59;48.69;100963.89;1732568;82;21884;-92
2022/06/28 07:58:40;;;;;;;3.95;1.82;;;;;;;28.65;49.82;100962.44;1732087;82;21048;-89
2022/06/28 08:01:09;;;;;;;2.45;1.87;;;;;;;28.75;48.77;100957.08;1735843;81;21031;-90
2022/06/28 08:03:42;;;;;;;2.10;1.90;;;;;;;28.79;48.47;100966.31;1739582;82;21494;-90
2022/06/28 08:06:38;;;;;;;3.90;1.82;;;;;;;28.83;47.10;100962.65;1713735;83;21093;-90
2022/06/28 08:09:07;;;;;;;1.98;1.85;;;;;;;28.87;45.76;100953.92;1729080;83;21091;-90
2022/06/28 08:11:34;;;;;;;2.85;1.90;;;;;;;28.91;49.30;100951.06;1730778;82;21077;-91
2022/06/28 08:14:39;;;;;;;2.83;1.90;;;;;;;28.99;48.45;100950.44;1721779;82;20994;-91
2022/06/28 08:17:07;;;;;;;2.20;1.65;;;;;;;29.08;48.91;100952.57;1730656;82;21528;-91
2022/06/28 08:19:35;;;;;;;2.05;1.85;;;;;;;29.15;43.44;100951.10;1716908;82;21043;-91
2022/06/28 08:22:03;;;;;;;6.30;1.80;;;;;;;29.18;45.55;100956.52;1736282;82;21152;-90
2022/06/28 08:24:31;;;;;;;4.17;1.77;;;;;;;29.19;45.27;100958.99;1736706;82;21095;-92
2022/06/28 08:26:58;;;;;;;4.72;1.90;;;;;;;29.24;43.26;100952.94;1713597;83;21546;-90
2022/06/28 08:29:29;;;;;;;4.50;1.82;;;;;;;29.24;44.76;100948.38;1714094;83;21024;-90
2022/06/28 08:31:56;;;;;;;2.45;2.00;;;;;;;29.30;45.59;100935.91;1713731;82;21059;-90
2022/06/28 08:34:54;;;;;;;2.12;1.92;;;;;;;29.43;48.10;100932.22;1713397;82;21815;-91
2022/06/28 08:37:27;;;;;;;3.87;2.10;;;;;;;29.56;47.22;100927.14;1713676;82;21129;-92
2022/06/28 08:39:54;;;;;;;2.95;1.90;;;;;;;29.64;47.35;100921.92;1713726;83;21471;-91
2022/06/28 08:42:26;;;;;;;3.60;2.27;;;;;;;29.71;46.28;100927.97;1715920;82;21063;-90
2022/06/28 08:45:01;;;;;;;1.98;1.80;;;;;;;29.75;46.37;100935.86;1743448;82;20987;-90
2022/06/28 08:47:34;;;;;;;2.05;1.70;;;;;;;29.77;46.28;100938.30;1743514;82;21206;-92
2022/06/28 08:50:12;;;;;;;4.28;2.00;;;;;;;29.81;47.63;100938.93;1743905;82;20939;-90
2022/06/28 08:52:44;;;;;;;2.83;1.65;;;;;;;29.86;47.68;100940.37;1740256;81;21453;-91
2022/06/28 08:55:11;;;;;;;1.80;1.37;;;;;;;29.94;43.54;100955.84;1741975;82;21655;-94
2022/06/28 08:57:44;;;;;;;1.72;1.62;;;;;;;29.91;42.21;100947.70;1741617;82;21041;-90
2022/06/28 09:00:13;;;;;;;2.30;1.70;;;;;;;29.89;43.47;100951.98;1731667;81;22310;-89
2022/06/28 09:02:45;;;;;;;5.87;1.57;;;;;;;29.93;42.09;100942.13;1708253;84;21570;-90
2022/06/28 09:08:53;;;;;;;1.73;1.63;;;;;;;30.02;46.57;100940.70;1715446;83;21498;-91
2022/06/28 09:11:20;;;;;;;3.12;1.60;;;;;;;30.19;46.26;100927.37;1723771;82;21037;-90
2022/06/28 09:13:48;;;;;;;4.33;1.82;;;;;;;30.32;46.61;100920.89;1709611;82;21156;-91
2022/06/28 09:16:15;;;;;;;1.75;1.60;;;;;;;30.41;45.50;100924.80;1714242;82;21032;-90
2022/06/28 09:18:46;;;;;;;2.67;1.67;;;;;;;30.44;45.34;100925.67;1721408;83;21071;-90
2022/06/28 09:21:17;;;;;;;3.15;1.95;;;;;;;30.44;44.66;100920.84;1719521;82;21017;-90
2022/06/28 09:23:52;;;;;;;;;;;;;;;30.44;43.48;100916.27;1691760;83;21025;-90
2022/06/28 09:26:21;;;;;;;2.62;2.02;;;;;;;30.49;43.49;100915.00;1691878;82;21987;-92
2022/06/28 09:28:51;;;;;;;3.50;1.62;;;;;;;30.59;44.48;100917.11;1716901;82;21034;-90
2022/06/28 09:31:25;;;;;;;3.02;1.60;;;;;;;30.61;45.67;100918.20;1719334;82;21050;-89
2022/06/28 09:34:07;;;;;;;1.47;1.32;;;;;;;30.57;43.41;100915.73;1714610;82;20991;-89
2022/06/28 09:36:39;;;;;;;1.72;1.60;;;;;;;30.53;44.60;100918.89;1712988;83;21129;-92
2022/06/28 09:39:17;;;;;;;1.55;1.45;;;;;;;30.60;42.63;100908.51;1710540;83;21146;-91
2022/06/28 09:41:50;;;;;;;2.22;1.40;;;;;;;30.66;45.74;100908.36;1704218;83;21066;-91
2022/06/28 09:44:18;;;;;;;3.75;1.75;;;;;;;30.78;44.15;100911.48;1716314;82;21031;-90
2022/06/28 09:46:46;;;;;;;4.50;1.57;;;;;;;30.77;42.62;100906.66;1712480;83;21537;-92
2022/06/28 09:49:14;;;;;;;3.83;1.72;;;;;;;30.74;40.22;100911.16;1673345;85;21056;-92
2022/06/28 09:51:42;;;;;;;1.70;1.60;;;;;;;30.72;40.03;100910.61;1741801;82;21137;-90
2022/06/28 09:54:10;;;;;;;1.60;1.50;;;;;;;30.68;40.54;100912.14;1741552;82;21093;-93
2022/06/28 09:56:41;;;;;;;1.60;1.47;;;;;;;30.62;40.82;100909.09;1739180;80;21014;-90
2022/06/28 09:59:11;;;;;;;3.27;1.62;;;;;;;30.57;39.37;100906.33;1741116;80;22145;-90
2022/06/28 10:01:38;;;;;;;3.22;1.80;;;;;;;30.53;40.50;100897.39;1762732;80;21677;-92
2022/06/28 10:04:06;;;;;;;2.50;1.60;;;;;;;30.57;39.44;100895.58;1742037;82;21137;-94
2022/06/28 10:06:35;;;;;;;2.80;1.80;;;;;;;30.68;40.77;100891.98;1719001;82;21117;-92
2022/06/28 10:09:06;;;;;;;1.82;1.70;;;;;;;30.78;41.98;100876.55;1723248;83;21062;-91
2022/06/28 10:17:45;;;;;;;2.10;1.90;;;;;;;30.84;42.29;100865.64;1760489;81;22017;-92
2022/06/28 10:20:19;;;;;;;2.85;1.87;;;;;;;30.86;43.72;100866.73;1761532;80;22100;-92
2022/06/28 10:22:47;;;;;;;2.55;2.00;;;;;;;30.94;42.74;100865.52;1758351;81;21658;-90
2022/06/28 10:25:22;;;;;;;2.55;2.15;;;;;;;31.04;43.30;100860.30;1759824;80;21043;-92
2022/06/28 10:27:51;;;;;;;2.77;1.92;;;;;;;31.17;44.35;100864.52;1743225;80;21119;-91
2022/06/28 10:30:26;;;;;;;2.30;1.98;;;;;;;31.30;41.84;100872.77;1750984;81;21863;-90
2022/06/28 10:33:06;;;;;;;3.10;2.02;;;;;;;31.37;41.53;100869.91;1726809;82;21167;-94
2022/06/28 10:35:42;;;;;;;2.72;2.30;;;;;;;31.34;41.27;100860.98;1734133;81;20996;-90
2022/06/28 10:38:15;;;;;;;3.08;2.40;;;;;;;31.35;44.41;100859.92;1713827;82;21044;-90
2022/06/28 10:40:49;;;;;;;6.80;5.33;;;;;;;31.39;42.58;100854.34;1732370;81;21441;-92
2022/06/28 10:43:34;;;;;;;2.85;2.47;;;;;;;31.36;43.05;100856.17;1749924;80;21615;-90
2022/06/28 10:46:06;;;;;;;4.70;2.40;;;;;;;31.38;44.75;100852.71;1764574;80;21053;-92
2022/06/28 10:48:54;;;;;;;2.60;2.40;;;;;;;31.38;45.48;100856.75;1742026;80;21028;-93
2022/06/28 10:51:21;;;;;;;3.47;2.40;;;;;;;31.44;45.40;100846.33;1748896;80;21650;-90
2022/06/28 10:54:04;;;;;;;6.78;2.92;;;;;;;31.57;45.32;100850.52;1744109;82;21079;-91
2022/06/28 10:56:39;;;;;;;6.03;2.65;;;;;;;31.67;45.29;100849.34;1742362;81;21315;-90
2022/06/28 10:59:13;;;;;;;2.90;2.70;;;;;;;31.71;42.73;100848.30;1779842;79;21040;-91
2022/06/28 11:01:48;;;;;;;4.35;2.45;;;;;;;31.74;43.54;100850.47;1764664;79;21439;-90
2022/06/28 11:04:25;;;;;;;2.55;2.35;;;;;;;31.76;43.38;100849.18;1751788;80;20959;-90
2022/06/28 11:07:00;;;;;;;3.87;2.70;;;;;;;31.76;43.86;100844.31;1775573;79;20961;-91
2022/06/28 11:09:50;;;;;;;3.05;2.75;;;;;;;31.80;46.03;100831.16;1727174;81;21249;-90
2022/06/28 11:12:31;;;;;;;3.33;3.02;;;;;;;31.81;43.80;100829.55;1717188;80;21048;-93
2022/06/28 11:15:11;;;;;;;4.67;3.25;;;;;;;31.86;43.20;100830.14;1766470;80;21730;-92
2022/06/28 11:17:43;;;;;;;3.70;3.33;;;;;;;31.89;43.75;100831.80;1754537;80;21028;-91
2022/06/28 11:20:22;;;;;;;4.78;3.02;;;;;;;31.92;45.69;100827.81;1743801;80;21072;-89
2022/06/28 11:22:51;;;;;;;3.25;2.75;;;;;;;31.92;45.02;100823.22;1733902;81;21460;-91
2022/06/28 11:25:23;;;;;;;3.77;3.30;;;;;;;31.90;45.06;100816.47;1735428;82;21047;-89
2022/06/28 11:27:54;;;;;;;6.10;3.17;;;;;;;31.88;46.44;100816.73;1738204;81;21061;-90
2022/06/28 11:30:26;;;;;;;4.25;3.17;;;;;;;31.88;48.53;100811.87;1735851;81;21042;-91
2022/06/28 11:32:59;;;;;;;3.10;2.90;;;;;;;31.97;46.23;100809.00;1737047;82;21070;-90
2022/06/28 11:35:30;;;;;;;5.20;3.30;;;;;;;32.02;47.30;100814.42;1735883;82;21856;-90
2022/06/28 11:38:04;;;;;;;3.40;3.20;;;;;;;32.02;46.99;100810.93;1733173;82;21004;-90
2022/06/28 11:40:54;;;;;;;4.33;3.55;;;;;;;31.98;48.87;100811.98;1726065;81;21087;-91
2022/06/28 11:43:25;;;;;;;3.95;3.58;;;;;;;32.02;48.49;100810.93;1732742;82;21011;-89
2022/06/28 11:45:54;;;;;;;3.87;3.58;;;;;;;32.15;49.91;100804.33;1738947;81;21550;-91
2022/06/28 11:48:26;;;;;;;5.42;3.87;;;;;;;32.15;49.91;100804.33;1733967;82;21209;-90
2022/06/28 11:50:57;;;;;;;4.17;3.77;;;;;;;32.19;49.72;100805.42;1724392;82;21113;-90
2022/06/28 11:53:25;;;;;;;;;;;;;;;32.22;48.25;100798.22;1739238;80;21324;-90
2022/06/28 11:55:55;;;;;;;4.17;3.42;;;;;;;32.15;50.70;100802.43;1733472;81;20217;-89
2022/06/28 11:58:33;;;;;;;4.00;3.67;;;;;;;32.09;48.90;100798.88;1728601;82;21054;-89
2022/06/28 12:01:07;;;;;;;6.62;3.65;;;;;;;32.05;52.09;100786.20;1733357;82;21532;-91
2022/06/28 12:03:49;;;;;;;6.00;3.87;;;;;;;32.04;50.76;100785.92;1744732;82;21026;-91
2022/06/28 12:06:30;;;;;;;4.87;3.75;;;;;;;32.08;49.20;100793.23;1764812;81;21048;-91
2022/06/28 12:09:08;;;;;;;6.70;4.37;;;;;;;32.20;51.61;100782.81;1760791;81;21076;-92
2022/06/28 12:11:44;;;;;;;6.05;3.90;;;;;;;32.28;49.13;100779.67;1763891;81;21044;-89
2022/06/28 12:14:18;;;;;;;5.25;4.22;;;;;;;32.40;49.81;100777.63;1759374;81;21331;-89